createdAt,value
2022-12-24T00:00:13.933Z,2.60
2022-12-24T00:02:41.394Z,2.50
2022-12-24T00:05:09.343Z,2.63
2022-12-24T00:07:36.504Z,2.50
2022-12-24T00:10:04.395Z,2.40
2022-12-24T00:12:31.645Z,2.50
2022-12-24T00:14:58.844Z,2.40
2022-12-24T00:17:26.000Z,2.50
2022-12-24T00:19:53.175Z,2.60
2022-12-24T00:22:20.344Z,2.50
2022-12-24T00:24:47.467Z,2.60
2022-12-24T00:27:14.647Z,2.40
2022-12-24T00:29:41.811Z,2.47
2022-12-24T00:32:10.233Z,2.40
2022-12-24T00:34:37.926Z,2.73
2022-12-24T00:37:05.087Z,2.70
2022-12-24T00:39:32.357Z,2.73
2022-12-24T00:41:59.525Z,2.97
2022-12-24T00:44:26.876Z,3.00
2022-12-24T00:46:54.061Z,2.83
2022-12-24T00:49:21.219Z,2.70
2022-12-24T00:51:48.399Z,2.80
2022-12-24T00:54:15.667Z,2.83
2022-12-24T00:56:42.829Z,2.80
2022-12-24T00:59:09.961Z,2.70
2022-12-24T01:01:37.331Z,2.40
2022-12-24T01:04:23.336Z,2.30
2022-12-24T01:06:50.470Z,2.80
2022-12-24T01:09:17.629Z,2.40
2022-12-24T01:11:46.260Z,2.60
2022-12-24T01:14:13.417Z,2.67
2022-12-24T01:16:40.578Z,2.67
2022-12-24T01:19:07.831Z,2.50
2022-12-24T01:21:35.017Z,2.60
2022-12-24T01:24:02.162Z,2.50
2022-12-24T01:26:29.316Z,2.80
2022-12-24T01:28:57.499Z,2.63
2022-12-24T01:31:24.827Z,2.93
2022-12-24T01:33:51.986Z,3.10
2022-12-24T01:36:19.120Z,3.00
2022-12-24T01:38:46.247Z,3.13
2022-12-24T01:41:36.644Z,2.97
2022-12-24T01:44:23.184Z,2.93
2022-12-24T01:46:52.474Z,2.70
2022-12-24T01:49:19.881Z,2.57
2022-12-24T01:51:48.798Z,2.30
2022-12-24T01:54:21.561Z,2.20
2022-12-24T01:56:51.827Z,2.30
2022-12-24T01:59:20.689Z,2.50
2022-12-24T02:01:49.092Z,2.10
2022-12-24T02:04:20.495Z,2.30
2022-12-24T02:06:47.611Z,2.37
2022-12-24T02:09:15.358Z,2.30
2022-12-24T02:11:44.827Z,2.20
2022-12-24T02:14:12.999Z,2.30
2022-12-24T02:16:48.533Z,2.00
2022-12-24T02:19:18.756Z,2.20
2022-12-24T02:21:49.275Z,2.00
2022-12-24T02:24:34.728Z,1.97
2022-12-24T02:27:18.264Z,1.90
2022-12-24T02:29:48.459Z,2.00
2022-12-24T02:32:19.988Z,2.00
2022-12-24T02:34:50.139Z,2.30
2022-12-24T02:37:22.794Z,2.00
2022-12-24T02:39:54.531Z,1.97
2022-12-24T02:42:24.136Z,1.93
2022-12-24T02:44:51.428Z,2.17
2022-12-24T02:47:19.330Z,2.20
2022-12-24T02:49:48.072Z,2.30
2022-12-24T02:52:31.110Z,2.17
2022-12-24T02:54:59.700Z,2.30
2022-12-24T02:57:31.101Z,2.50
2022-12-24T03:00:00.539Z,2.30
2022-12-24T03:02:30.833Z,2.47
2022-12-24T03:05:03.577Z,2.27
2022-12-24T03:07:35.767Z,2.30
2022-12-24T03:10:12.141Z,2.20
2022-12-24T03:12:51.350Z,2.13
2022-12-24T03:15:20.412Z,2.40
2022-12-24T03:17:49.282Z,2.30
2022-12-24T03:20:21.485Z,2.10
2022-12-24T03:22:48.787Z,2.07
2022-12-24T03:25:16.562Z,1.87
2022-12-24T03:27:44.565Z,2.00
2022-12-24T03:30:13.158Z,2.30
2022-12-24T03:32:40.524Z,1.90
2022-12-24T03:35:09.399Z,1.80
2022-12-24T03:37:36.627Z,1.83
2022-12-24T03:40:04.579Z,2.00
2022-12-24T03:42:31.723Z,2.20
2022-12-24T03:44:59.009Z,2.40
2022-12-24T03:47:26.127Z,2.30
2022-12-24T03:49:53.324Z,2.40
2022-12-24T03:52:20.494Z,2.37
2022-12-24T03:54:47.645Z,2.20
2022-12-24T03:57:14.825Z,2.40
2022-12-24T03:59:42.027Z,2.30
2022-12-24T04:02:09.349Z,2.20
2022-12-24T04:04:37.718Z,2.27
2022-12-24T04:07:05.307Z,2.40
2022-12-24T04:09:32.829Z,2.30
2022-12-24T04:12:00.046Z,2.30
2022-12-24T04:14:27.247Z,2.40
2022-12-24T04:16:54.420Z,2.17
2022-12-24T04:19:21.674Z,2.17
2022-12-24T04:21:48.832Z,1.90
2022-12-24T04:24:15.957Z,1.87
2022-12-24T04:26:43.144Z,1.90
2022-12-24T04:29:10.370Z,1.80
2022-12-24T04:31:37.618Z,1.87
2022-12-24T04:34:04.830Z,1.80
2022-12-24T04:36:32.032Z,1.80
2022-12-24T04:38:59.159Z,1.77
2022-12-24T04:41:26.489Z,2.00
2022-12-24T04:43:54.473Z,1.90
2022-12-24T04:46:23.333Z,1.60
2022-12-24T04:48:51.965Z,1.73
2022-12-24T04:51:19.262Z,2.00
2022-12-24T04:53:46.643Z,1.97
2022-12-24T04:56:15.078Z,1.70
2022-12-24T04:58:42.233Z,1.80
2022-12-24T05:01:12.843Z,2.00
2022-12-24T05:03:40.247Z,1.80
2022-12-24T05:06:09.049Z,1.90
2022-12-24T05:08:36.257Z,1.70
2022-12-24T05:11:03.784Z,1.73
2022-12-24T05:13:39.116Z,2.00
2022-12-24T05:16:09.780Z,1.80
2022-12-24T05:18:36.905Z,1.87
2022-12-24T05:21:04.117Z,2.03
2022-12-24T05:23:49.767Z,2.17
2022-12-24T05:26:27.748Z,2.00
2022-12-24T05:28:56.129Z,2.00
2022-12-24T05:31:24.388Z,2.00
2022-12-24T05:33:51.745Z,1.90
2022-12-24T05:36:18.920Z,1.77
2022-12-24T05:38:46.068Z,1.73
2022-12-24T05:41:13.245Z,1.80
2022-12-24T05:43:40.434Z,1.80
2022-12-24T05:46:09.154Z,1.50
2022-12-24T05:48:36.831Z,1.87
2022-12-24T05:51:09.049Z,2.10
2022-12-24T05:53:36.817Z,1.90
2022-12-24T05:56:14.772Z,1.93
2022-12-24T05:58:42.507Z,2.10
2022-12-24T06:01:10.280Z,2.00
2022-12-24T06:03:37.469Z,1.80
2022-12-24T06:06:06.501Z,1.90
2022-12-24T06:08:34.156Z,2.00
2022-12-24T06:11:02.860Z,2.00
2022-12-24T06:13:30.440Z,1.77
2022-12-24T06:16:01.519Z,1.87
2022-12-24T06:18:32.433Z,2.20
2022-12-24T06:21:00.122Z,2.00
2022-12-24T06:23:29.091Z,1.90
2022-12-24T06:25:57.237Z,1.90
2022-12-24T06:28:24.380Z,1.87
2022-12-24T06:30:55.792Z,2.20
2022-12-24T06:33:26.040Z,1.70
2022-12-24T06:35:53.171Z,1.83
2022-12-24T06:38:20.406Z,1.83
2022-12-24T06:40:47.904Z,1.80
2022-12-24T06:43:15.673Z,1.80
2022-12-24T06:45:46.618Z,1.90
2022-12-24T06:48:14.215Z,2.00
2022-12-24T06:50:42.096Z,1.83
2022-12-24T06:53:09.868Z,1.87
2022-12-24T06:55:37.000Z,1.90
2022-12-24T06:58:04.386Z,1.90
2022-12-24T07:00:31.651Z,2.10
2022-12-24T07:02:59.182Z,1.93
2022-12-24T07:05:26.567Z,1.87
2022-12-24T07:07:53.704Z,1.87
2022-12-24T07:10:21.648Z,1.90
2022-12-24T07:12:49.205Z,1.97
2022-12-24T07:15:17.415Z,2.10
2022-12-24T07:17:44.875Z,1.80
2022-12-24T07:20:14.677Z,1.80
2022-12-24T07:22:42.300Z,1.80
2022-12-24T07:25:09.766Z,1.67
2022-12-24T07:27:37.365Z,2.00
2022-12-24T07:30:05.081Z,1.90
2022-12-24T07:32:32.373Z,2.10
2022-12-24T07:34:59.611Z,2.00
2022-12-24T07:37:26.988Z,2.00
2022-12-24T07:39:54.127Z,1.80
2022-12-24T07:42:21.391Z,2.27
2022-12-24T07:44:48.535Z,2.03
2022-12-24T07:47:15.722Z,1.80
2022-12-24T07:49:42.915Z,1.90
2022-12-24T07:52:10.086Z,1.97
2022-12-24T07:54:37.257Z,2.07
2022-12-24T07:57:04.495Z,1.83
2022-12-24T07:59:31.684Z,1.77
2022-12-24T08:01:58.929Z,2.00
2022-12-24T08:04:26.336Z,1.70
2022-12-24T08:06:53.462Z,1.80
2022-12-24T08:09:20.578Z,1.60
2022-12-24T08:11:52.035Z,1.80
2022-12-24T08:14:19.902Z,2.00
2022-12-24T08:16:47.170Z,2.07
2022-12-24T08:19:14.497Z,1.90
2022-12-24T08:21:41.640Z,2.00
2022-12-24T08:24:08.843Z,1.93
2022-12-24T08:26:35.998Z,2.00
2022-12-24T08:29:03.751Z,2.10
2022-12-24T08:31:36.466Z,2.10
2022-12-24T08:34:08.977Z,2.00
2022-12-24T08:36:36.154Z,2.00
2022-12-24T08:39:03.755Z,1.90
2022-12-24T08:41:34.026Z,2.20
2022-12-24T08:44:01.176Z,2.80
2022-12-24T08:46:28.383Z,2.50
2022-12-24T08:48:55.621Z,2.40
2022-12-24T08:51:22.778Z,2.20
2022-12-24T08:53:50.132Z,1.93
2022-12-24T08:56:17.417Z,2.20
2022-12-24T08:58:44.844Z,2.57
2022-12-24T09:01:16.475Z,2.63
2022-12-24T09:03:44.023Z,2.60
2022-12-24T09:06:11.412Z,2.60
2022-12-24T09:08:38.704Z,2.33
2022-12-24T09:11:10.502Z,2.67
2022-12-24T09:13:38.050Z,2.20
2022-12-24T09:16:05.586Z,2.50
2022-12-24T09:18:32.744Z,2.40
2022-12-24T09:21:04.181Z,2.40
2022-12-24T09:23:31.498Z,2.70
2022-12-24T09:25:58.701Z,2.50
2022-12-24T09:28:25.844Z,2.63
2022-12-24T09:30:59.689Z,2.50
2022-12-24T09:33:27.354Z,2.67
2022-12-24T09:35:55.049Z,2.70
2022-12-24T09:38:22.790Z,2.80
2022-12-24T09:40:50.266Z,3.13
2022-12-24T09:43:24.805Z,3.27
2022-12-24T09:45:54.842Z,2.87
2022-12-24T09:48:24.342Z,2.87
2022-12-24T09:51:00.169Z,3.10
2022-12-24T09:53:38.019Z,3.20
2022-12-24T09:56:08.628Z,2.60
2022-12-24T09:58:38.259Z,2.40
2022-12-24T10:01:05.694Z,2.50
2022-12-24T10:03:33.486Z,2.77
2022-12-24T10:06:06.943Z,2.50
2022-12-24T10:08:37.928Z,2.47
2022-12-24T10:11:11.327Z,2.40
2022-12-24T10:13:38.470Z,2.60
2022-12-24T10:16:08.643Z,2.67
2022-12-24T10:18:35.878Z,3.13
2022-12-24T10:21:16.406Z,3.20
2022-12-24T10:23:55.800Z,3.10
2022-12-24T10:26:33.732Z,2.70
2022-12-24T10:29:03.944Z,2.80
2022-12-24T10:31:32.854Z,2.70
2022-12-24T10:34:04.065Z,2.30
2022-12-24T10:36:31.698Z,2.37
2022-12-24T10:38:59.343Z,2.60
2022-12-24T10:41:27.262Z,2.60
2022-12-24T10:43:54.915Z,2.40
2022-12-24T10:46:22.233Z,2.70
2022-12-24T10:48:55.151Z,2.77
2022-12-24T10:51:24.883Z,3.13
2022-12-24T10:53:55.324Z,2.77
2022-12-24T10:56:22.491Z,2.60
2022-12-24T10:58:54.148Z,2.80
2022-12-24T11:01:41.636Z,2.70
2022-12-24T11:04:15.880Z,2.50
2022-12-24T11:06:52.585Z,2.60
2022-12-24T11:09:22.224Z,2.80
2022-12-24T11:11:49.751Z,2.73
2022-12-24T11:14:17.958Z,2.70
2022-12-24T11:17:03.744Z,2.73
2022-12-24T11:19:40.171Z,2.63
2022-12-24T11:22:09.329Z,3.00
2022-12-24T11:24:37.885Z,2.83
2022-12-24T11:27:24.225Z,2.83
2022-12-24T11:29:51.442Z,2.70
2022-12-24T11:32:20.849Z,2.90
2022-12-24T11:34:48.252Z,2.70
2022-12-24T11:37:25.210Z,3.03
2022-12-24T11:39:56.082Z,2.87
2022-12-24T11:42:24.717Z,3.40
2022-12-24T11:44:52.013Z,3.00
2022-12-24T11:47:32.335Z,2.90
2022-12-24T11:50:19.767Z,3.03
2022-12-24T11:52:53.213Z,2.90
2022-12-24T11:55:39.265Z,3.10
2022-12-24T11:58:12.032Z,3.00
2022-12-24T12:00:40.573Z,3.20
2022-12-24T12:03:14.285Z,3.47
2022-12-24T12:05:41.581Z,3.30
2022-12-24T12:08:14.845Z,3.63
2022-12-24T12:10:44.171Z,3.20
2022-12-24T12:13:16.415Z,3.10
2022-12-24T12:15:46.780Z,3.10
2022-12-24T12:18:19.768Z,2.90
2022-12-24T12:20:53.484Z,2.80
2022-12-24T12:23:29.361Z,3.20
2022-12-24T12:26:19.557Z,3.03
2022-12-24T12:28:48.768Z,3.10
2022-12-24T12:31:37.486Z,3.20
2022-12-24T12:34:11.024Z,2.90
2022-12-24T12:36:44.136Z,3.10
2022-12-24T12:39:12.192Z,2.70
2022-12-24T12:41:39.305Z,2.63
2022-12-24T12:44:12.302Z,3.00
2022-12-24T12:46:56.542Z,2.63
2022-12-24T12:49:32.842Z,3.07
2022-12-24T12:52:10.981Z,2.70
2022-12-24T12:54:56.926Z,2.93
2022-12-24T12:57:27.223Z,2.70
2022-12-24T13:00:05.258Z,2.60
2022-12-24T13:02:35.763Z,2.60
2022-12-24T13:05:15.377Z,2.90
2022-12-24T13:07:55.725Z,2.63
2022-12-24T13:10:40.545Z,2.77
2022-12-24T13:13:15.461Z,3.00
2022-12-24T13:16:05.895Z,2.40
2022-12-24T13:18:42.227Z,2.90
2022-12-24T13:21:21.079Z,2.77
2022-12-24T13:23:48.812Z,2.90
2022-12-24T13:26:16.663Z,2.73
2022-12-24T13:28:44.398Z,2.60
2022-12-24T13:31:24.655Z,2.87
2022-12-24T13:33:56.103Z,2.60
2022-12-24T13:36:23.510Z,2.70
2022-12-24T13:38:54.801Z,3.33
2022-12-24T13:41:39.362Z,3.10
2022-12-24T13:44:13.519Z,2.40
2022-12-24T13:46:49.714Z,2.70
2022-12-24T13:49:21.217Z,2.77
2022-12-24T13:51:50.738Z,2.90
2022-12-24T13:54:28.529Z,3.00
2022-12-24T13:56:55.811Z,2.50
2022-12-24T13:59:39.268Z,2.50
2022-12-24T14:02:06.918Z,2.43
2022-12-24T14:04:35.714Z,2.80
2022-12-24T14:07:04.811Z,2.30
2022-12-24T14:09:33.246Z,2.33
2022-12-24T14:12:00.386Z,2.37
2022-12-24T14:14:29.029Z,2.47
2022-12-24T14:16:58.905Z,2.50
2022-12-24T14:19:28.934Z,2.60
2022-12-24T14:22:04.755Z,2.60
2022-12-24T14:24:34.848Z,2.77
2022-12-24T14:27:22.356Z,2.40
2022-12-24T14:29:51.925Z,2.67
2022-12-24T14:32:19.122Z,2.95
2022-12-24T14:34:46.497Z,2.70
2022-12-24T14:37:14.491Z,2.70
2022-12-24T14:39:44.019Z,2.70
2022-12-24T14:42:30.150Z,2.40
2022-12-24T14:45:03.579Z,2.27
2022-12-24T14:47:46.031Z,2.40
2022-12-24T14:50:37.611Z,2.63
2022-12-24T14:53:18.599Z,2.50
2022-12-24T14:55:47.663Z,2.80
2022-12-24T14:58:17.575Z,2.80
2022-12-24T15:00:44.840Z,4.40
2022-12-24T15:03:16.063Z,3.13
2022-12-24T15:05:43.794Z,3.50
2022-12-24T15:08:16.304Z,3.83
2022-12-24T15:10:51.129Z,3.20
2022-12-24T15:13:18.241Z,2.90
2022-12-24T15:15:52.190Z,2.70
2022-12-24T15:18:22.091Z,2.70
2022-12-24T15:20:50.117Z,2.80
2022-12-24T15:23:27.243Z,2.80
2022-12-24T15:26:07.084Z,2.70
2022-12-24T15:28:38.771Z,2.67
2022-12-24T15:31:09.398Z,2.80
2022-12-24T15:33:37.352Z,2.67
2022-12-24T15:36:04.963Z,2.50
2022-12-24T15:38:33.937Z,2.60
2022-12-24T15:41:07.459Z,2.93
2022-12-24T15:43:39.164Z,2.20
2022-12-24T15:46:06.340Z,2.57
2022-12-24T15:48:33.664Z,2.60
2022-12-24T15:51:02.515Z,2.40
2022-12-24T15:53:34.491Z,2.47
2022-12-24T15:56:01.796Z,2.77
2022-12-24T15:58:30.763Z,2.60
2022-12-24T16:01:02.449Z,3.00
2022-12-24T16:03:29.730Z,3.47
2022-12-24T16:06:01.222Z,3.50
2022-12-24T16:08:39.935Z,3.53
2022-12-24T16:11:24.089Z,3.92
2022-12-24T16:13:51.305Z,3.53
2022-12-24T16:16:20.812Z,3.53
2022-12-24T16:18:50.768Z,3.00
2022-12-24T16:21:29.797Z,3.20
2022-12-24T16:24:06.308Z,3.20
2022-12-24T16:26:38.183Z,3.23
2022-12-24T16:29:05.403Z,3.10
2022-12-24T16:31:34.175Z,3.67
2022-12-24T16:34:02.081Z,3.40
2022-12-24T16:36:30.082Z,3.23
2022-12-24T16:39:16.641Z,2.90
2022-12-24T16:42:02.692Z,3.20
2022-12-24T16:44:29.906Z,3.30
2022-12-24T16:46:58.461Z,3.30
2022-12-24T16:49:25.626Z,3.30
2022-12-24T16:51:52.829Z,3.40
2022-12-24T16:54:19.938Z,3.87
2022-12-24T16:56:47.194Z,3.53
2022-12-24T16:59:18.468Z,3.17
2022-12-24T17:01:45.771Z,3.30
2022-12-24T17:04:13.685Z,2.90
2022-12-24T17:06:40.869Z,2.43
2022-12-24T17:09:09.046Z,3.23
2022-12-24T17:11:36.506Z,3.50
2022-12-24T17:14:08.144Z,4.37
2022-12-24T17:16:37.592Z,4.37
2022-12-24T17:19:05.533Z,4.67
2022-12-24T17:21:32.720Z,4.13
2022-12-24T17:23:59.870Z,4.20
2022-12-24T17:26:27.036Z,3.90
2022-12-24T17:28:58.175Z,3.30
2022-12-24T17:31:25.650Z,3.10
2022-12-24T17:33:53.562Z,2.90
2022-12-24T17:36:21.066Z,2.57
2022-12-24T17:38:49.267Z,2.40
2022-12-24T17:41:18.491Z,2.43
2022-12-24T17:43:45.935Z,2.77
2022-12-24T17:46:15.464Z,2.47
2022-12-24T17:48:42.968Z,2.20
2022-12-24T17:51:11.738Z,2.87
2022-12-24T17:53:39.747Z,3.07
2022-12-24T17:56:07.718Z,3.10
2022-12-24T17:58:34.905Z,3.00
2022-12-24T18:01:02.066Z,8.40
2022-12-24T18:03:29.567Z,10.13
2022-12-24T18:06:02.993Z,3.57
2022-12-24T18:08:30.136Z,2.93
2022-12-24T18:10:57.281Z,3.37
2022-12-24T18:13:24.590Z,2.57
2022-12-24T18:15:51.812Z,2.90
2022-12-24T18:18:18.985Z,2.93
2022-12-24T18:20:47.094Z,3.10
2022-12-24T18:23:14.449Z,2.63
2022-12-24T18:25:41.597Z,3.00
2022-12-24T18:28:08.735Z,2.80
2022-12-24T18:30:35.928Z,2.53
2022-12-24T18:33:03.164Z,2.67
2022-12-24T18:35:30.298Z,3.30
2022-12-24T18:37:57.453Z,3.40
2022-12-24T18:40:24.688Z,3.17
2022-12-24T18:42:51.830Z,3.17
2022-12-24T18:45:19.020Z,3.30
2022-12-24T18:47:46.168Z,3.10
2022-12-24T18:50:13.313Z,2.90
2022-12-24T18:52:40.473Z,2.60
2022-12-24T18:55:08.258Z,2.47
2022-12-24T18:57:35.692Z,2.60
2022-12-24T19:00:02.840Z,2.70
2022-12-24T19:02:30.106Z,2.70
2022-12-24T19:04:57.441Z,2.63
2022-12-24T19:07:24.605Z,3.10
2022-12-24T19:09:51.748Z,2.97
2022-12-24T19:12:18.915Z,3.00
2022-12-24T19:14:46.069Z,3.00
2022-12-24T19:17:13.243Z,2.80
2022-12-24T19:19:40.437Z,3.03
2022-12-24T19:22:07.618Z,2.50
2022-12-24T19:24:34.794Z,2.43
2022-12-24T19:27:01.942Z,2.73
2022-12-24T19:29:29.052Z,2.87
2022-12-24T19:31:56.436Z,3.87
2022-12-24T19:34:23.689Z,2.73
2022-12-24T19:36:50.858Z,2.60
2022-12-24T19:39:18.053Z,2.70
2022-12-24T19:41:45.176Z,2.70
2022-12-24T19:44:12.536Z,2.50
2022-12-24T19:46:40.017Z,2.40
2022-12-24T19:49:10.599Z,2.47
2022-12-24T19:51:37.789Z,2.30
2022-12-24T19:54:06.370Z,2.30
2022-12-24T19:56:34.127Z,2.50
2022-12-24T19:59:02.100Z,2.30
2022-12-24T20:01:30.586Z,2.30
2022-12-24T20:03:57.971Z,2.20
2022-12-24T20:06:26.423Z,2.50
2022-12-24T20:08:53.630Z,2.30
2022-12-24T20:11:22.259Z,2.30
2022-12-24T20:13:49.487Z,2.10
2022-12-24T20:16:18.095Z,1.90
2022-12-24T20:18:45.375Z,2.10
2022-12-24T20:21:13.296Z,2.20
2022-12-24T20:23:41.518Z,2.27
2022-12-24T20:26:10.285Z,2.47
2022-12-24T20:28:37.689Z,2.60
2022-12-24T20:31:15.184Z,2.70
2022-12-24T20:33:43.601Z,2.60
2022-12-24T20:36:11.331Z,2.50
2022-12-24T20:38:39.142Z,2.50
2022-12-24T20:41:07.154Z,2.30
2022-12-24T20:43:38.380Z,2.20
2022-12-24T20:46:07.581Z,2.10
2022-12-24T20:48:35.007Z,2.13
2022-12-24T20:51:06.465Z,2.20
2022-12-24T20:53:33.709Z,2.00
2022-12-24T20:56:01.092Z,1.80
2022-12-24T20:58:28.252Z,1.93
2022-12-24T21:00:55.525Z,2.00
2022-12-24T21:03:22.761Z,2.27
2022-12-24T21:05:49.996Z,2.30
2022-12-24T21:08:17.138Z,2.10
2022-12-24T21:10:46.617Z,2.00
2022-12-24T21:13:13.770Z,1.80
2022-12-24T21:15:41.428Z,2.07
2022-12-24T21:18:11.971Z,1.77
2022-12-24T21:20:40.473Z,1.83
2022-12-24T21:23:08.280Z,1.73
2022-12-24T21:25:36.075Z,1.70
2022-12-24T21:28:03.452Z,1.80
2022-12-24T21:30:32.073Z,1.90
2022-12-24T21:32:59.332Z,1.60
2022-12-24T21:35:26.473Z,1.83
2022-12-24T21:37:53.664Z,1.90
2022-12-24T21:40:20.878Z,1.53
2022-12-24T21:42:48.011Z,1.60
2022-12-24T21:45:15.197Z,1.70
2022-12-24T21:47:44.611Z,1.80
2022-12-24T21:50:32.263Z,1.60
2022-12-24T21:53:18.508Z,1.70
2022-12-24T21:55:45.686Z,1.80
2022-12-24T21:58:12.836Z,1.50
2022-12-24T22:00:40.158Z,1.77
2022-12-24T22:03:07.508Z,1.70
2022-12-24T22:05:35.150Z,1.70
2022-12-24T22:08:21.053Z,1.70
2022-12-24T22:11:07.017Z,1.70
2022-12-24T22:13:34.191Z,1.60
2022-12-24T22:16:01.389Z,1.70
2022-12-24T22:18:28.595Z,1.60
2022-12-24T22:20:56.161Z,1.90
2022-12-24T22:23:23.338Z,1.60
2022-12-24T22:25:50.545Z,1.47
2022-12-24T22:28:17.925Z,1.60
2022-12-24T22:30:45.126Z,1.70
2022-12-24T22:33:12.345Z,1.60
2022-12-24T22:35:42.279Z,1.83
2022-12-24T22:38:09.892Z,1.60
2022-12-24T22:40:39.323Z,1.90
2022-12-24T22:43:06.465Z,1.83
2022-12-24T22:45:33.693Z,1.70
2022-12-24T22:48:00.821Z,1.37
2022-12-24T22:50:27.973Z,1.60
2022-12-24T22:52:55.112Z,1.70
2022-12-24T22:55:22.502Z,1.83
2022-12-24T22:57:49.643Z,1.77
2022-12-24T23:00:43.393Z,1.50
2022-12-24T23:03:11.346Z,1.40
2022-12-24T23:05:39.302Z,1.53
2022-12-24T23:08:07.601Z,1.70
2022-12-24T23:10:35.188Z,1.57
2022-12-24T23:13:21.484Z,1.50
2022-12-24T23:15:48.955Z,1.80
2022-12-24T23:18:16.247Z,1.50
2022-12-24T23:20:47.243Z,1.60
2022-12-24T23:23:15.419Z,1.67
2022-12-24T23:25:42.668Z,1.60
2022-12-24T23:28:09.947Z,1.47
2022-12-24T23:30:37.192Z,2.03
2022-12-24T23:33:04.384Z,1.50
2022-12-24T23:35:31.589Z,1.60
2022-12-24T23:37:58.730Z,1.73
2022-12-24T23:40:26.077Z,1.90
2022-12-24T23:42:53.246Z,1.70
2022-12-24T23:45:20.418Z,1.70
2022-12-24T23:47:47.578Z,1.77
2022-12-24T23:50:14.849Z,1.50
2022-12-24T23:52:42.157Z,1.50
2022-12-24T23:55:09.366Z,1.33
2022-12-24T23:57:36.499Z,1.60
